Terminal Aerodrome Forecast
Issued by NWS

Home | Current Version | Previous Version | Text Only | Print | Product List | Glossary On
Versions: 1 2 3 4 5 6 7 8 9 10 11 12 13 14 15 16 17 18 19 20 21 22 23 24 25 26
000
FTUS45 KSLC 221220 AAA
TAF36U
TAF AMD
K36U 221220Z 2212/2312 VRB05KT P6SM VCSH SCT060 SCT110
      TEMPO 2212/2214 1SM BR SCT005
     FM221800 23009KT P6SM SCT100
     FM230100 VRB05KT P6SM SKC=

USA.gov is the U.S. government's official web portal to all federal, state and local government web resources and services.